Time;durP1;ratioP1;P1;durP2;ratioP2;P2;SDS_P1;SDS_P2;PMS_P1;PMS_P2;Temp;Humidity;BMP_temperature;BMP_pressure;BME280_temperature;BME280_humidity;BME280_pressure;Samples;Min_cycle;Max_cycle;Signal;HPM_P1;HPM_P2
2021/12/26 00:00:12;;;;;;;5.90;3.22;;;-4.00;90.10;;;;;;5117257;27;20429;-69
2021/12/26 00:02:38;;;;;;;6.60;3.20;;;-4.10;90.20;;;;;;5121266;27;20051;-69
2021/12/26 00:05:05;;;;;;;8.73;2.83;;;-4.10;90.10;;;;;;5112713;27;20402;-69
2021/12/26 00:07:30;;;;;;;5.57;3.15;;;-4.10;90.10;;;;;;5122877;27;20096;-70
2021/12/26 00:09:56;;;;;;;11.10;3.08;;;-4.10;90.00;;;;;;5119054;27;20497;-70
2021/12/26 00:12:22;;;;;;;7.70;3.05;;;-4.00;90.00;;;;;;5129911;27;20039;-70
2021/12/26 00:14:47;;;;;;;4.45;3.15;;;-4.00;90.00;;;;;;5127866;27;20046;-70
2021/12/26 00:17:13;;;;;;;6.30;3.00;;;-4.00;89.80;;;;;;5126141;27;20073;-69
2021/12/26 00:19:39;;;;;;;5.32;2.80;;;-4.00;89.70;;;;;;5125552;27;20442;-70
2021/12/26 00:22:05;;;;;;;6.28;2.80;;;-4.00;89.40;;;;;;5121269;27;20953;-70
2021/12/26 00:24:30;;;;;;;6.80;2.80;;;-4.00;88.90;;;;;;5127529;27;20087;-70
2021/12/26 00:26:56;;;;;;;4.07;2.92;;;-4.00;89.10;;;;;;5123437;27;20040;-70
2021/12/26 00:29:22;;;;;;;4.85;2.83;;;-4.10;89.20;;;;;;5124608;27;20047;-69
2021/12/26 00:31:48;;;;;;;7.85;3.15;;;-4.00;89.20;;;;;;5119720;27;20047;-70
2021/12/26 00:34:13;;;;;;;4.97;2.72;;;-4.00;88.90;;;;;;5125565;27;20050;-70
2021/12/26 00:36:39;;;;;;;6.00;2.80;;;-4.00;88.50;;;;;;5121962;27;20061;-70
2021/12/26 00:39:06;;;;;;;4.90;2.85;;;-4.00;88.40;;;;;;5117845;27;20035;-70
2021/12/26 00:41:33;;;;;;;7.70;3.60;;;-4.10;88.20;;;;;;5126850;27;20078;-70
2021/12/26 00:43:59;;;;;;;9.60;4.72;;;-4.10;87.90;;;;;;5119093;27;20071;-70
2021/12/26 00:46:25;;;;;;;6.60;3.65;;;-4.10;88.00;;;;;;5139120;27;20074;-69
2021/12/26 00:48:50;;;;;;;5.72;3.38;;;-4.10;87.90;;;;;;5126058;27;20035;-69
2021/12/26 00:51:16;;;;;;;9.68;3.63;;;-4.10;87.70;;;;;;5126115;27;20157;-70
2021/12/26 00:53:42;;;;;;;6.75;3.50;;;-4.10;87.70;;;;;;5123895;27;20631;-69
2021/12/26 00:56:07;;;;;;;5.18;2.90;;;-4.10;87.40;;;;;;5126457;27;20031;-69
2021/12/26 00:58:33;;;;;;;5.70;2.92;;;-4.10;87.10;;;;;;5123125;27;20092;-70
2021/12/26 01:00:58;;;;;;;6.63;3.13;;;-4.20;86.50;;;;;;5124838;27;20452;-70
2021/12/26 01:03:24;;;;;;;10.32;3.00;;;-4.20;86.50;;;;;;5124674;27;20050;-70
2021/12/26 01:05:54;;;;;;;7.65;3.03;;;-4.20;86.50;;;;;;5118249;27;20047;-70
2021/12/26 01:08:25;;;;;;;8.75;2.72;;;-4.20;86.40;;;;;;5125195;27;20039;-70
2021/12/26 01:10:56;;;;;;;5.00;2.67;;;-4.20;86.50;;;;;;5123786;27;20039;-70
2021/12/26 01:13:36;;;;;;;5.13;2.90;;;-4.20;86.00;;;;;;5114213;27;20432;-70
2021/12/26 01:16:10;;;;;;;4.45;2.75;;;-4.20;85.80;;;;;;5122695;27;20036;-70
2021/12/26 01:18:43;;;;;;;5.82;2.88;;;-4.20;85.90;;;;;;5123455;27;20043;-70
2021/12/26 01:21:18;;;;;;;5.85;3.45;;;-4.20;85.90;;;;;;5127905;27;20043;-70
2021/12/26 01:23:47;;;;;;;7.13;3.38;;;-4.20;85.70;;;;;;5115838;27;20112;-70
2021/12/26 01:26:12;;;;;;;6.93;3.00;;;-4.10;85.70;;;;;;5120296;27;20065;-70
2021/12/26 01:28:39;;;;;;;7.03;3.00;;;-4.20;85.20;;;;;;5125882;27;20043;-69
2021/12/26 01:31:05;;;;;;;7.05;3.15;;;-4.20;84.80;;;;;;5150093;27;20106;-69
2021/12/26 01:33:31;;;;;;;6.38;3.05;;;-4.20;84.60;;;;;;5125400;27;20123;-70
2021/12/26 01:35:57;;;;;;;4.03;2.70;;;-4.20;84.50;;;;;;5124278;27;20054;-70
2021/12/26 01:38:23;;;;;;;5.88;2.88;;;-4.20;84.40;;;;;;5125794;27;20092;-70
2021/12/26 01:40:54;;;;;;;4.55;2.95;;;-4.20;84.40;;;;;;5116374;27;20518;-70
2021/12/26 01:43:30;;;;;;;4.80;3.15;;;-4.20;84.10;;;;;;5160314;27;20080;-70
2021/12/26 01:45:56;;;;;;;5.05;2.70;;;-4.20;84.20;;;;;;5113155;27;20083;-69
2021/12/26 01:48:22;;;;;;;5.13;3.20;;;-4.20;84.00;;;;;;5128662;27;20078;-70
2021/12/26 01:50:50;;;;;;;5.93;2.80;;;-4.10;83.80;;;;;;5108196;27;20047;-70
2021/12/26 01:53:16;;;;;;;6.25;3.00;;;-4.10;83.50;;;;;;5120493;27;20126;-70
2021/12/26 01:55:45;;;;;;;7.00;3.10;;;-4.20;83.20;;;;;;5118350;27;20126;-70
2021/12/26 01:58:21;;;;;;;4.50;2.65;;;-4.20;82.90;;;;;;5123999;27;20492;-70
2021/12/26 02:00:52;;;;;;;6.28;3.05;;;-4.20;82.90;;;;;;5160139;27;20042;-69
2021/12/26 02:03:18;;;;;;;8.02;3.25;;;-4.30;82.60;;;;;;5117303;27;20478;-70
2021/12/26 02:05:44;;;;;;;6.60;3.20;;;-4.20;82.70;;;;;;5118009;27;20039;-69
2021/12/26 02:08:10;;;;;;;5.45;3.10;;;-4.30;82.80;;;;;;5106985;27;20050;-70
2021/12/26 02:10:35;;;;;;;7.70;3.25;;;-4.30;83.00;;;;;;5136515;27;20052;-70
2021/12/26 02:13:01;;;;;;;5.97;3.42;;;-4.30;83.10;;;;;;5125315;27;20130;-69
2021/12/26 02:15:27;;;;;;;6.30;3.13;;;-4.30;83.00;;;;;;5112371;27;20073;-70
2021/12/26 02:17:53;;;;;;;6.97;3.10;;;-4.30;82.80;;;;;;5126289;27;20084;-69
2021/12/26 02:20:58;;;;;;;6.90;3.40;;;-4.30;82.80;;;;;;5127259;27;20445;-70
2021/12/26 02:23:34;;;;;;;6.50;3.15;;;-4.30;82.70;;;;;;5117971;27;20148;-70
2021/12/26 02:28:41;;;;;;;6.25;3.80;;;-4.40;82.90;;;;;;5121803;27;20497;-69
2021/12/26 02:31:07;;;;;;;7.00;3.10;;;-4.40;82.70;;;;;;5156418;27;20059;-70
2021/12/26 02:33:33;;;;;;;6.03;3.40;;;-4.40;82.80;;;;;;5115287;27;20044;-70
2021/12/26 02:35:59;;;;;;;8.75;3.67;;;-4.30;82.80;;;;;;5125403;27;20046;-69
2021/12/26 02:38:25;;;;;;;6.25;3.40;;;-4.40;82.70;;;;;;5119205;27;20466;-70
2021/12/26 02:40:54;;;;;;;6.93;3.42;;;-4.30;82.70;;;;;;5125393;27;20038;-70
2021/12/26 02:43:24;;;;;;;5.88;3.45;;;-4.40;82.70;;;;;;5126229;28;20043;-70
2021/12/26 02:45:50;;;;;;;8.68;3.80;;;-4.40;82.80;;;;;;5120417;28;20061;-69
2021/12/26 02:48:17;;;;;;;7.85;4.25;;;-4.40;83.10;;;;;;5157048;27;20134;-69
2021/12/26 02:50:45;;;;;;;7.72;4.25;;;-4.40;83.20;;;;;;5119840;28;20205;-69
2021/12/26 02:53:15;;;;;;;8.32;4.15;;;-4.40;82.70;;;;;;5113764;28;20055;-69
2021/12/26 02:55:41;;;;;;;9.02;4.40;;;-4.50;82.50;;;;;;5125249;28;20047;-70
2021/12/26 02:58:09;;;;;;;12.20;5.10;;;-4.40;82.80;;;;;;5124142;28;20138;-69
2021/12/26 03:00:42;;;;;;;7.15;4.00;;;-4.40;82.80;;;;;;5118370;28;20426;-69
2021/12/26 03:03:07;;;;;;;8.50;4.68;;;-4.40;82.70;;;;;;5126881;27;20130;-69
2021/12/26 03:05:37;;;;;;;11.93;5.22;;;-4.40;82.60;;;;;;5121471;28;20485;-70
2021/12/26 03:08:05;;;;;;;12.95;5.78;;;-4.40;82.50;;;;;;5118851;28;20064;-69
2021/12/26 03:10:31;;;;;;;16.67;6.75;;;-4.40;82.70;;;;;;5113301;28;20066;-69
2021/12/26 03:13:00;;;;;;;17.15;6.90;;;-4.40;82.90;;;;;;5124400;27;20046;-70
2021/12/26 03:15:29;;;;;;;11.55;5.75;;;-4.40;82.70;;;;;;5126214;27;20130;-69
2021/12/26 03:17:55;;;;;;;12.88;6.25;;;-4.50;82.50;;;;;;5120488;28;20512;-69
2021/12/26 03:20:31;;;;;;;11.43;5.50;;;-4.50;82.50;;;;;;5112176;28;20051;-70
2021/12/26 03:23:00;;;;;;;10.57;5.18;;;-4.40;82.50;;;;;;5144897;27;20068;-69
2021/12/26 03:25:28;;;;;;;12.98;6.15;;;-4.50;82.40;;;;;;5121712;27;20497;-70
2021/12/26 03:27:54;;;;;;;13.93;6.75;;;-4.50;82.40;;;;;;5122109;28;20051;-70
2021/12/26 03:30:24;;;;;;;12.90;6.30;;;-4.50;82.30;;;;;;5124194;27;20046;-70
2021/12/26 03:32:50;;;;;;;12.50;6.47;;;-4.50;82.20;;;;;;5119527;28;20043;-69
2021/12/26 03:35:18;;;;;;;11.27;6.23;;;-4.50;82.10;;;;;;5124035;28;20031;-69
2021/12/26 03:37:44;;;;;;;12.90;6.80;;;-4.50;82.10;;;;;;5114538;28;20062;-70
2021/12/26 03:40:10;;;;;;;12.07;6.63;;;-4.50;82.10;;;;;;5113037;28;20406;-70
2021/12/26 03:42:36;;;;;;;11.05;5.20;;;-4.50;82.30;;;;;;5118964;28;20093;-70
2021/12/26 03:45:03;;;;;;;9.50;5.30;;;-4.40;82.20;;;;;;5125233;28;20482;-70
2021/12/26 03:47:31;;;;;;;8.82;5.00;;;-4.50;82.10;;;;;;5123079;27;20092;-69
2021/12/26 03:49:57;;;;;;;7.82;4.85;;;-4.50;81.90;;;;;;5125284;28;20526;-70
2021/12/26 03:52:23;;;;;;;10.85;5.80;;;-4.50;81.80;;;;;;5155768;27;20062;-69
2021/12/26 03:54:49;;;;;;;9.13;5.40;;;-4.50;82.10;;;;;;5126968;27;20126;-70
2021/12/26 03:57:15;;;;;;;9.95;5.53;;;-4.50;82.20;;;;;;5129219;27;20047;-69
2021/12/26 03:59:41;;;;;;;10.15;5.25;;;-4.50;82.00;;;;;;5129805;27;20049;-69
2021/12/26 04:02:06;;;;;;;9.63;5.32;;;-4.60;81.80;;;;;;5121943;27;20316;-69
2021/12/26 04:04:32;;;;;;;9.18;5.38;;;-4.60;81.90;;;;;;5128371;27;20481;-69
2021/12/26 04:06:57;;;;;;;7.65;5.15;;;-4.60;82.10;;;;;;5124925;27;20070;-69
2021/12/26 04:09:23;;;;;;;8.05;5.00;;;-4.60;82.00;;;;;;5122718;27;20035;-69
2021/12/26 04:11:49;;;;;;;9.52;5.28;;;-4.50;81.80;;;;;;5117501;27;20051;-70
2021/12/26 04:14:16;;;;;;;9.73;5.68;;;-4.60;81.80;;;;;;5118367;27;20097;-70
2021/12/26 04:16:42;;;;;;;9.98;5.10;;;-4.60;81.70;;;;;;5122434;27;20039;-69
2021/12/26 04:19:08;;;;;;;8.15;5.20;;;-4.50;81.60;;;;;;5124895;27;20043;-70
2021/12/26 04:21:34;;;;;;;8.82;5.18;;;-4.60;81.70;;;;;;5125089;27;20043;-69
2021/12/26 04:24:01;;;;;;;9.77;4.80;;;-4.60;81.50;;;;;;5119608;27;20151;-69
2021/12/26 04:26:27;;;;;;;10.20;5.80;;;-4.60;81.20;;;;;;5125374;27;20332;-69
2021/12/26 04:28:52;;;;;;;7.93;5.05;;;-4.60;81.00;;;;;;5126516;27;20046;-69
2021/12/26 04:31:18;;;;;;;8.68;4.70;;;-4.60;81.00;;;;;;5128159;27;20425;-69
2021/12/26 04:33:45;;;;;;;9.63;5.80;;;-4.60;81.00;;;;;;5128323;27;20031;-68
2021/12/26 04:36:10;;;;;;;8.07;4.60;;;-4.50;80.80;;;;;;5124966;27;20046;-70
2021/12/26 04:38:36;;;;;;;9.35;4.90;;;-4.60;80.70;;;;;;5124680;27;20051;-71
2021/12/26 04:41:04;;;;;;;9.38;4.88;;;-4.60;80.50;;;;;;5127113;27;20038;-71
2021/12/26 04:43:34;;;;;;;8.90;4.35;;;-4.50;80.60;;;;;;5123727;27;20051;-70
2021/12/26 04:46:01;;;;;;;9.23;5.05;;;-4.50;80.20;;;;;;5155675;27;20575;-70
2021/12/26 04:48:27;;;;;;;9.13;4.65;;;-4.50;80.00;;;;;;5125587;27;20104;-70
2021/12/26 04:50:53;;;;;;;9.57;4.68;;;-4.50;79.70;;;;;;5124475;27;20452;-71
2021/12/26 04:53:18;;;;;;;8.70;4.80;;;-4.50;79.60;;;;;;5116908;27;20040;-70
2021/12/26 04:55:44;;;;;;;9.30;4.97;;;-4.50;79.20;;;;;;5132877;27;20047;-70
2021/12/26 04:58:09;;;;;;;9.45;4.90;;;-4.50;79.40;;;;;;5119456;27;20048;-71
2021/12/26 05:00:35;;;;;;;9.63;5.05;;;-4.50;79.50;;;;;;5128164;27;20044;-71
2021/12/26 05:03:03;;;;;;;9.70;4.85;;;-4.50;79.40;;;;;;5121458;27;20093;-71
2021/12/26 05:05:29;;;;;;;9.38;5.15;;;-4.50;79.10;;;;;;5128439;27;20096;-71
2021/12/26 05:07:56;;;;;;;8.35;4.53;;;-4.50;79.20;;;;;;5127288;27;20047;-70
2021/12/26 05:10:25;;;;;;;8.50;4.53;;;-4.50;79.00;;;;;;5115876;27;20039;-71
2021/12/26 05:12:51;;;;;;;6.63;4.43;;;-4.50;78.70;;;;;;5125037;27;20085;-69
2021/12/26 05:15:17;;;;;;;7.60;4.63;;;-4.50;79.00;;;;;;5123196;27;20043;-69
2021/12/26 05:17:43;;;;;;;7.82;4.47;;;-4.50;78.30;;;;;;5123978;27;20047;-69
2021/12/26 05:20:12;;;;;;;8.35;4.60;;;-4.50;78.60;;;;;;5127304;27;20657;-69
2021/12/26 05:22:38;;;;;;;8.13;4.95;;;-4.50;78.70;;;;;;5125894;27;20062;-69
2021/12/26 05:25:06;;;;;;;10.98;5.35;;;-4.40;78.90;;;;;;5119135;27;20119;-69
2021/12/26 05:27:33;;;;;;;8.02;4.70;;;-4.50;78.80;;;;;;5126547;27;20076;-69
2021/12/26 05:29:58;;;;;;;8.93;4.97;;;-4.60;78.40;;;;;;5127483;27;20096;-68
2021/12/26 05:32:24;;;;;;;8.90;4.97;;;-4.60;78.30;;;;;;5125787;27;20402;-70
2021/12/26 05:34:49;;;;;;;8.57;4.93;;;-4.60;78.50;;;;;;5118944;27;20647;-69
2021/12/26 05:37:15;;;;;;;9.23;4.65;;;-4.60;78.50;;;;;;5124945;27;20056;-70
2021/12/26 05:39:42;;;;;;;10.98;4.90;;;-4.60;78.20;;;;;;5119989;27;20047;-70
2021/12/26 05:42:14;;;;;;;10.13;5.30;;;-4.60;78.10;;;;;;5124608;27;20055;-70
2021/12/26 05:44:40;;;;;;;9.25;5.00;;;-4.50;78.30;;;;;;5126498;27;20104;-71
2021/12/26 05:47:06;;;;;;;9.85;5.07;;;-4.50;78.40;;;;;;5123133;27;20047;-71
2021/12/26 05:49:31;;;;;;;13.10;6.68;;;-4.50;78.20;;;;;;5121509;27;20043;-71
2021/12/26 05:51:57;;;;;;;9.07;5.85;;;-4.50;78.20;;;;;;5112841;27;20142;-71
2021/12/26 05:54:22;;;;;;;9.07;5.15;;;-4.50;78.00;;;;;;5125893;27;20047;-71
2021/12/26 05:56:48;;;;;;;11.63;5.10;;;-4.50;77.70;;;;;;5125148;27;20034;-70
2021/12/26 05:59:14;;;;;;;8.98;5.13;;;-4.50;77.70;;;;;;5128057;27;20486;-71
2021/12/26 06:01:39;;;;;;;9.65;5.57;;;-4.50;77.80;;;;;;5125665;27;20035;-71
2021/12/26 06:04:05;;;;;;;8.95;5.53;;;-4.50;77.80;;;;;;5119622;27;20088;-70
2021/12/26 06:06:30;;;;;;;8.85;4.85;;;-4.50;78.40;;;;;;5120960;27;20031;-71
2021/12/26 06:08:56;;;;;;;8.10;5.00;;;-4.50;77.80;;;;;;5125461;27;20534;-71
2021/12/26 06:11:22;;;;;;;7.68;5.13;;;-4.50;77.90;;;;;;5123653;27;20088;-71
2021/12/26 06:13:47;;;;;;;10.45;5.53;;;-4.50;77.70;;;;;;5120541;27;20046;-71
2021/12/26 06:16:13;;;;;;;7.82;5.20;;;-4.50;77.70;;;;;;5123649;27;20060;-71
2021/12/26 06:18:39;;;;;;;9.18;5.18;;;-4.50;78.00;;;;;;5115684;27;20059;-70
2021/12/26 06:21:04;;;;;;;8.90;5.13;;;-4.50;78.00;;;;;;5143737;27;20079;-71
2021/12/26 06:23:30;;;;;;;8.07;5.28;;;-4.50;78.10;;;;;;5120324;27;20478;-71
2021/12/26 06:25:55;;;;;;;8.35;5.35;;;-4.50;78.20;;;;;;5116472;27;20051;-70
2021/12/26 06:28:21;;;;;;;8.23;5.45;;;-4.50;78.00;;;;;;5121083;27;20047;-71
2021/12/26 06:30:47;;;;;;;9.27;5.72;;;-4.50;77.80;;;;;;5153770;27;20552;-71
2021/12/26 06:33:12;;;;;;;10.15;6.07;;;-4.50;77.70;;;;;;5122597;27;20046;-71
2021/12/26 06:35:38;;;;;;;7.43;5.15;;;-4.50;77.80;;;;;;5124205;27;20035;-71
2021/12/26 06:38:03;;;;;;;8.52;5.00;;;-4.50;77.80;;;;;;5117389;27;20099;-71
2021/12/26 06:40:29;;;;;;;8.27;5.15;;;-4.60;77.80;;;;;;5109799;27;20047;-70
2021/12/26 06:42:55;;;;;;;8.80;5.88;;;-4.50;78.10;;;;;;5122090;27;20695;-71
2021/12/26 06:45:20;;;;;;;9.02;5.28;;;-4.50;78.30;;;;;;5126793;28;20364;-71
2021/12/26 06:47:50;;;;;;;9.23;5.65;;;-4.50;78.30;;;;;;5126206;28;20054;-71
2021/12/26 06:50:17;;;;;;;7.75;5.18;;;-4.50;78.20;;;;;;5116233;28;20058;-71
2021/12/26 06:52:43;;;;;;;8.20;5.28;;;-4.60;78.60;;;;;;5119332;28;20517;-71
2021/12/26 06:55:10;;;;;;;8.93;5.07;;;-4.60;77.90;;;;;;5127613;27;20070;-71
2021/12/26 06:57:37;;;;;;;9.88;5.15;;;-4.60;78.10;;;;;;5121888;28;20051;-71
2021/12/26 07:00:08;;;;;;;10.13;5.47;;;-4.60;78.30;;;;;;5124129;27;20083;-70
2021/12/26 07:02:35;;;;;;;10.50;5.70;;;-4.60;78.20;;;;;;5125511;28;20078;-71
2021/12/26 07:05:01;;;;;;;10.93;6.60;;;-4.60;78.00;;;;;;5126263;27;20039;-71
2021/12/26 07:07:27;;;;;;;10.30;6.00;;;-4.60;78.10;;;;;;5121065;28;20119;-71
2021/12/26 07:09:52;;;;;;;10.10;6.38;;;-4.50;78.00;;;;;;5117607;27;20179;-71
2021/12/26 07:12:18;;;;;;;10.73;7.32;;;-4.50;78.30;;;;;;5149419;27;20095;-71
2021/12/26 07:14:44;;;;;;;11.40;7.15;;;-4.50;78.30;;;;;;5115905;27;20050;-71
2021/12/26 07:17:10;;;;;;;9.20;6.03;;;-4.50;78.30;;;;;;5121505;28;20652;-71
2021/12/26 07:19:37;;;;;;;9.15;5.82;;;-4.50;78.30;;;;;;5123032;28;20081;-71
2021/12/26 07:22:04;;;;;;;8.00;5.90;;;-4.50;78.20;;;;;;5147737;27;20063;-71
2021/12/26 07:24:30;;;;;;;12.67;6.57;;;-4.50;78.40;;;;;;5108805;27;20046;-71
2021/12/26 07:26:56;;;;;;;9.75;5.93;;;-4.50;78.50;;;;;;5146656;27;20042;-72
2021/12/26 07:29:21;;;;;;;10.60;6.53;;;-4.50;78.60;;;;;;5135706;27;20051;-71
2021/12/26 07:31:47;;;;;;;11.65;6.53;;;-4.50;78.60;;;;;;5125184;27;20132;-71
2021/12/26 07:34:13;;;;;;;10.30;7.10;;;-4.50;78.50;;;;;;5133829;27;20092;-71
2021/12/26 07:36:39;;;;;;;9.93;6.95;;;-4.50;78.50;;;;;;5129082;27;20031;-72
2021/12/26 07:39:05;;;;;;;9.57;6.45;;;-4.60;78.30;;;;;;5115777;27;20047;-71
2021/12/26 07:41:31;;;;;;;9.27;6.20;;;-4.60;78.40;;;;;;5126916;27;20051;-71
2021/12/26 07:43:57;;;;;;;9.68;6.50;;;-4.60;78.50;;;;;;5126456;27;20041;-71
2021/12/26 07:46:22;;;;;;;10.98;6.10;;;-4.60;78.70;;;;;;5116412;27;20040;-72
2021/12/26 07:48:51;;;;;;;12.38;6.32;;;-4.60;78.40;;;;;;5124976;27;20131;-70
2021/12/26 07:51:19;;;;;;;10.93;6.28;;;-4.60;78.70;;;;;;5159134;27;20039;-71
2021/12/26 07:53:46;;;;;;;10.02;6.57;;;-4.60;78.40;;;;;;5118690;27;20120;-71
2021/12/26 07:56:14;;;;;;;11.52;6.85;;;-4.60;78.70;;;;;;5127243;27;20042;-70
2021/12/26 07:58:41;;;;;;;10.52;6.70;;;-4.50;78.70;;;;;;5126981;27;20043;-71
2021/12/26 08:01:06;;;;;;;10.63;6.78;;;-4.50;79.00;;;;;;5128183;27;20573;-70
2021/12/26 08:03:36;;;;;;;13.05;6.65;;;-4.40;79.10;;;;;;5116934;27;20051;-70
2021/12/26 08:06:02;;;;;;;10.30;6.22;;;-4.40;78.90;;;;;;5129694;27;20064;-70
2021/12/26 08:08:28;;;;;;;10.45;6.32;;;-4.40;78.80;;;;;;5115781;27;20055;-70
2021/12/26 08:10:54;;;;;;;13.07;6.43;;;-4.40;78.80;;;;;;5125651;27;20039;-71
2021/12/26 08:13:20;;;;;;;10.02;6.45;;;-4.40;78.90;;;;;;5126273;27;20096;-71
2021/12/26 08:15:46;;;;;;;9.02;6.00;;;-4.40;78.90;;;;;;5152251;27;20130;-72
2021/12/26 08:18:11;;;;;;;10.68;6.40;;;-4.30;78.70;;;;;;5146708;27;20126;-71
2021/12/26 08:20:37;;;;;;;11.25;6.80;;;-4.30;78.50;;;;;;5118202;27;20131;-74
2021/12/26 08:23:03;;;;;;;12.02;7.30;;;-4.30;78.60;;;;;;5109886;27;20744;-72
2021/12/26 08:25:29;;;;;;;10.95;6.80;;;-4.30;78.50;;;;;;5112627;27;20459;-73
2021/12/26 08:27:55;;;;;;;11.70;7.35;;;-4.30;78.30;;;;;;5111768;27;20119;-74
2021/12/26 08:30:21;;;;;;;10.90;6.85;;;-4.30;78.50;;;;;;5108243;27;20074;-72
2021/12/26 08:32:51;;;;;;;10.88;6.13;;;-4.30;78.20;;;;;;5111262;27;20049;-73
2021/12/26 08:35:17;;;;;;;13.88;8.23;;;-4.30;78.20;;;;;;5130233;27;20043;-73
2021/12/26 08:37:45;;;;;;;12.48;8.13;;;-4.20;77.90;;;;;;5119988;27;20047;-73
2021/12/26 08:40:11;;;;;;;13.45;7.70;;;-4.20;77.90;;;;;;5108799;27;20114;-73
2021/12/26 08:42:37;;;;;;;13.55;8.45;;;-4.20;78.10;;;;;;5116341;27;20044;-72
2021/12/26 08:45:03;;;;;;;12.27;7.32;;;-4.20;77.90;;;;;;5154773;27;20039;-73
2021/12/26 08:47:29;;;;;;;11.35;7.75;;;-4.20;78.10;;;;;;5128993;27;20614;-70
2021/12/26 08:49:54;;;;;;;12.30;7.90;;;-4.10;78.10;;;;;;5126469;27;20039;-71
2021/12/26 08:52:20;;;;;;;11.38;7.57;;;-4.10;78.10;;;;;;5125347;27;20047;-71
2021/12/26 08:54:46;;;;;;;11.60;7.90;;;-4.10;77.90;;;;;;5124549;27;20047;-70
2021/12/26 08:57:11;;;;;;;12.80;8.25;;;-4.10;78.10;;;;;;5128312;27;20043;-71
2021/12/26 08:59:40;;;;;;;11.73;7.47;;;-4.00;77.70;;;;;;5126763;27;20050;-70
2021/12/26 09:02:07;;;;;;;10.63;7.20;;;-4.00;77.60;;;;;;5140843;27;20123;-70
2021/12/26 09:04:34;;;;;;;12.07;8.00;;;-3.90;77.80;;;;;;5141387;27;20096;-70
2021/12/26 09:07:00;;;;;;;10.10;7.60;;;-3.90;77.70;;;;;;5114392;27;20390;-70
2021/12/26 09:09:27;;;;;;;10.68;7.13;;;-3.90;77.20;;;;;;5121374;27;20054;-70
2021/12/26 09:11:53;;;;;;;9.80;7.25;;;-3.90;77.40;;;;;;5107991;28;20044;-71
2021/12/26 09:14:19;;;;;;;10.15;7.57;;;-3.80;77.50;;;;;;5123812;27;20557;-70
2021/12/26 09:16:44;;;;;;;11.82;6.88;;;-3.70;77.30;;;;;;5126847;27;20046;-71
2021/12/26 09:19:10;;;;;;;12.82;7.82;;;-3.70;77.20;;;;;;5123835;27;20055;-70
2021/12/26 09:21:36;;;;;;;16.35;7.85;;;-3.60;76.80;;;;;;5125386;27;20409;-71
2021/12/26 09:24:03;;;;;;;10.57;6.88;;;-3.60;76.60;;;;;;5107992;27;20629;-70
2021/12/26 09:26:29;;;;;;;12.75;8.63;;;-3.60;76.50;;;;;;5126989;27;20394;-70
2021/12/26 09:28:54;;;;;;;17.52;13.38;;;-3.60;76.50;;;;;;5123163;27;20047;-70
2021/12/26 09:31:20;;;;;;;11.60;8.55;;;-3.60;76.40;;;;;;5127868;27;20524;-71
2021/12/26 09:33:45;;;;;;;11.10;7.20;;;-3.50;76.50;;;;;;5126370;27;20096;-71
2021/12/26 09:36:11;;;;;;;9.73;7.28;;;-3.40;76.60;;;;;;5127665;27;20042;-70
2021/12/26 09:38:37;;;;;;;11.90;7.20;;;-3.40;76.30;;;;;;5116537;27;20039;-70
2021/12/26 09:41:03;;;;;;;11.63;7.20;;;-3.30;76.80;;;;;;5107705;28;20040;-71
2021/12/26 09:43:29;;;;;;;10.98;6.82;;;-3.30;76.90;;;;;;5109355;27;20054;-70
2021/12/26 09:45:54;;;;;;;11.68;7.55;;;-3.30;76.40;;;;;;5134727;27;20046;-70
2021/12/26 09:48:20;;;;;;;9.40;6.78;;;-3.20;76.40;;;;;;5127741;27;20035;-71
2021/12/26 09:50:46;;;;;;;9.10;6.88;;;-3.20;76.30;;;;;;5125555;27;20039;-71
2021/12/26 09:53:12;;;;;;;9.98;7.03;;;-3.20;76.30;;;;;;5128498;27;20078;-70
2021/12/26 09:55:38;;;;;;;10.15;7.20;;;-3.20;76.40;;;;;;5124860;27;20039;-70
2021/12/26 09:58:04;;;;;;;12.35;8.38;;;-3.10;76.50;;;;;;5128660;27;20050;-70
2021/12/26 10:00:38;;;;;;;11.00;7.72;;;-3.00;76.60;;;;;;5124547;27;20031;-69
2021/12/26 10:03:33;;;;;;;10.48;7.53;;;-3.00;76.70;;;;;;5115081;27;20051;-70
2021/12/26 10:06:11;;;;;;;10.82;8.00;;;-2.90;76.10;;;;;;5115503;27;20653;-76
2021/12/26 10:09:02;;;;;;;10.57;7.38;;;-2.90;76.30;;;;;;5109843;27;20051;-71
2021/12/26 10:11:33;;;;;;;10.77;7.28;;;-2.80;76.10;;;;;;5111437;27;20057;-71
2021/12/26 10:14:03;;;;;;;10.20;7.25;;;-2.80;76.10;;;;;;5107194;28;20105;-71
2021/12/26 10:16:31;;;;;;;12.02;7.97;;;-2.80;76.00;;;;;;5125117;27;20079;-71
2021/12/26 10:18:58;;;;;;;10.80;7.85;;;-2.70;75.80;;;;;;5127745;27;20045;-70
2021/12/26 10:21:26;;;;;;;9.40;7.47;;;-2.70;75.80;;;;;;5127558;27;20047;-70
2021/12/26 10:23:52;;;;;;;;;;;-2.60;76.00;;;;;;5121006;27;20043;-73
2021/12/26 10:26:24;;;;;;;12.13;7.78;;;-2.50;75.70;;;;;;5114624;27;19923;-71
2021/12/26 10:29:11;;;;;;;10.57;7.40;;;-2.50;76.50;;;;;;5115432;27;20046;-71
2021/12/26 10:31:42;;;;;;;13.77;7.93;;;-2.50;76.20;;;;;;5109419;28;20131;-70
2021/12/26 10:34:27;;;;;;;11.60;8.00;;;-2.40;76.30;;;;;;5115297;27;20031;-70
2021/12/26 10:36:54;;;;;;;11.25;7.15;;;-2.40;76.00;;;;;;5127018;27;20051;-71
2021/12/26 10:39:24;;;;;;;11.55;8.55;;;-2.30;76.10;;;;;;5109640;27;20136;-70
2021/12/26 10:41:53;;;;;;;13.65;8.10;;;-2.30;76.30;;;;;;5105558;28;20052;-70
2021/12/26 10:44:22;;;;;;;10.75;7.55;;;-2.20;76.30;;;;;;5108497;28;20051;-70
2021/12/26 10:46:51;;;;;;;11.15;7.95;;;-2.20;76.90;;;;;;5118904;27;20047;-70
2021/12/26 10:49:24;;;;;;;11.32;7.90;;;-2.20;76.00;;;;;;5117226;28;20450;-70
2021/12/26 10:51:50;;;;;;;10.25;7.68;;;-2.10;75.90;;;;;;5120311;27;20047;-70
2021/12/26 10:54:18;;;;;;;10.63;8.13;;;-2.10;75.90;;;;;;5117489;27;20053;-70
2021/12/26 10:57:03;;;;;;;10.77;8.02;;;-2.00;76.00;;;;;;5118544;27;20039;-71
2021/12/26 10:59:28;;;;;;;10.02;7.47;;;-2.00;75.80;;;;;;5117783;28;20127;-70
2021/12/26 11:01:56;;;;;;;11.00;8.15;;;-1.90;76.20;;;;;;5108800;27;20134;-71
2021/12/26 11:04:23;;;;;;;11.35;7.78;;;-1.90;76.00;;;;;;5110125;27;20056;-71
2021/12/26 11:06:58;;;;;;;10.60;7.95;;;-2.00;75.70;;;;;;5110686;27;20074;-71
2021/12/26 11:09:24;;;;;;;11.18;7.70;;;-2.00;75.70;;;;;;5118517;27;20047;-71
2021/12/26 11:12:06;;;;;;;16.27;8.30;;;-1.90;76.00;;;;;;5121931;27;20130;-71
2021/12/26 11:14:32;;;;;;;10.90;8.02;;;-1.90;76.10;;;;;;5120882;27;20096;-71
2021/12/26 11:16:58;;;;;;;11.88;8.88;;;-1.90;76.40;;;;;;5124302;27;20050;-71
2021/12/26 11:19:41;;;;;;;10.65;8.00;;;-1.80;76.40;;;;;;5110468;27;20043;-71
2021/12/26 11:22:08;;;;;;;11.15;8.20;;;-1.80;76.60;;;;;;5111579;28;20479;-70
2021/12/26 11:24:34;;;;;;;10.80;8.02;;;-1.70;77.20;;;;;;5110119;27;20054;-71
2021/12/26 11:27:02;;;;;;;13.02;8.88;;;-1.70;77.30;;;;;;5124840;27;20545;-71
2021/12/26 11:29:27;;;;;;;11.65;8.70;;;-1.60;77.30;;;;;;5130803;27;20186;-70
2021/12/26 11:31:54;;;;;;;11.35;8.50;;;-1.50;77.40;;;;;;5127317;27;20086;-70
2021/12/26 11:34:20;;;;;;;11.30;8.43;;;-1.50;77.10;;;;;;5130779;27;20047;-70
2021/12/26 11:36:49;;;;;;;11.60;8.02;;;-1.50;77.30;;;;;;5130073;27;20071;-70
2021/12/26 11:39:17;;;;;;;11.65;8.27;;;-1.50;77.30;;;;;;5128834;27;20040;-70
2021/12/26 11:42:11;;;;;;;11.57;7.93;;;-1.40;77.20;;;;;;5124655;27;20043;-70
2021/12/26 11:45:06;;;;;;;11.02;8.20;;;-1.40;77.30;;;;;;5110284;27;20047;-70
2021/12/26 11:47:58;;;;;;;13.43;9.23;;;-1.30;77.30;;;;;;5112631;27;20070;-69
2021/12/26 11:50:50;;;;;;;11.88;8.30;;;-1.30;77.60;;;;;;5120257;27;20503;-71
2021/12/26 11:53:41;;;;;;;13.43;8.80;;;-1.30;77.60;;;;;;5125770;27;20130;-71
2021/12/26 11:56:13;;;;;;;14.77;8.63;;;-1.30;77.60;;;;;;5129593;27;20104;-70
2021/12/26 11:58:53;;;;;;;12.00;8.68;;;-1.30;77.70;;;;;;5128014;27;20054;-70
2021/12/26 12:01:22;;;;;;;11.38;8.23;;;-1.20;77.70;;;;;;5110107;28;20071;-70
2021/12/26 12:03:49;;;;;;;11.80;8.15;;;-1.20;77.90;;;;;;5110720;27;20051;-71
2021/12/26 12:06:26;;;;;;;11.00;8.13;;;-1.20;77.80;;;;;;5126265;27;20126;-71
2021/12/26 12:08:53;;;;;;;10.90;7.82;;;-1.20;78.00;;;;;;5124126;27;20677;-71
2021/12/26 12:11:19;;;;;;;11.25;8.45;;;-1.10;78.20;;;;;;5109269;27;20527;-71
2021/12/26 12:13:46;;;;;;;11.77;8.18;;;-1.10;78.10;;;;;;5108931;27;20046;-71
2021/12/26 12:16:33;;;;;;;10.68;8.10;;;-1.10;78.00;;;;;;5124317;27;20035;-70
2021/12/26 12:19:00;;;;;;;;;;;-1.10;78.00;;;;;;5114524;27;20143;-70
2021/12/26 12:22:04;;;;;;;10.60;8.15;;;-1.10;78.40;;;;;;5126168;27;19931;-70
2021/12/26 12:24:30;;;;;;;11.70;8.27;;;-1.00;78.60;;;;;;5073426;27;20043;-70
2021/12/26 12:27:00;;;;;;;10.55;8.40;;;-1.10;78.70;;;;;;5125376;27;20041;-70
2021/12/26 12:29:29;;;;;;;10.63;7.97;;;-1.00;78.70;;;;;;5114296;27;20043;-70
2021/12/26 12:32:06;;;;;;;11.30;8.55;;;-1.00;78.50;;;;;;5118503;27;20070;-70
2021/12/26 12:34:47;;;;;;;10.63;8.23;;;-1.00;78.60;;;;;;5123627;27;20046;-69
2021/12/26 12:37:39;;;;;;;11.35;8.50;;;-0.90;79.00;;;;;;5110994;27;20092;-71
2021/12/26 12:40:19;;;;;;;12.23;8.68;;;-0.90;79.10;;;;;;5112697;27;20447;-69
2021/12/26 12:43:03;;;;;;;12.38;8.65;;;-0.90;79.40;;;;;;5107108;27;20074;-70
2021/12/26 12:45:29;;;;;;;10.60;8.35;;;-0.80;79.30;;;;;;5108718;28;20101;-71
2021/12/26 12:48:24;;;;;;;12.63;9.02;;;-0.80;79.20;;;;;;5109035;27;20046;-70
2021/12/26 12:51:00;;;;;;;11.10;8.52;;;-0.80;79.10;;;;;;5107134;27;20058;-70